Topawa, Arizona
Current Conditions -  °F | °C
As of 3:53 PM on Wednesday 22 Oct 2014 (Local Time) from KTUS Reporting Station
Clear Clear  
Wind Chill: 89°   Ceiling: Unl
Heat Index: 89°   Visibility: 10mi
Dew Point: 41°   Wind: 6mph
Humidity: 19%   Direction: 350°N
Pressure: 29.98"   Gusts: NA
Location:  31.81°N, 111.83°W
Report Text: KTUS 222253Z 35005KT 10SM CLR 32/05 A2998 RMK AO2 SLP110 T03170050
Loading
Personal Weather Stations






























Interactive Weather Map
Tropical Storm Tracking
New forecast layout! Learn more

10-Day Weather Forecast

Advertisements
Track Severe Weather on mobile